Time;durP1;ratioP1;P1;durP2;ratioP2;P2;SDS_P1;SDS_P2;PMS_P1;PMS_P2;Temp;Humidity;BMP_temperature;BMP_pressure;BME280_temperature;BME280_humidity;BME280_pressure;Samples;Min_cycle;Max_cycle;Signal;HPM_P1;HPM_P2
2024/03/02 00:00:13;;;;;;;56.60;25.63;;;6.60;99.90;;;;;;4423845;28;658486;-75
2024/03/02 00:03:00;;;;;;;54.47;25.30;;;6.60;27.00;;;;;;4396256;28;659120;-75
2024/03/02 00:05:52;;;;;;;54.70;24.93;;;6.60;64.40;;;;;;4414644;28;658072;-75
2024/03/02 00:08:39;;;;;;;54.93;25.10;;;6.60;1.00;;;;;;4405885;28;657400;-76
2024/03/02 00:11:27;;;;;;;48.53;23.77;;;6.60;99.90;;;;;;4423231;28;657119;-76
2024/03/02 00:14:14;;;;;;;58.83;23.73;;;6.50;1.00;;;;;;4392017;28;659000;-76
2024/03/02 00:17:02;;;;;;;58.10;24.83;;;6.50;76.90;;;;;;4417163;28;656318;-75
2024/03/02 00:19:49;;;;;;;58.60;25.40;;;6.50;1.00;;;;;;4408260;28;657160;-75
2024/03/02 00:22:38;;;;;;;51.40;23.13;;;6.40;99.90;;;;;;4345671;28;657251;-76
2024/03/02 00:25:25;;;;;;;51.37;23.07;;;6.30;99.90;;;;;;4375294;28;658306;-75
2024/03/02 00:28:16;;;;;;;49.90;23.17;;;6.30;99.90;;;;;;4393667;28;657665;-75
2024/03/02 00:31:04;;;;;;;55.87;23.27;;;6.30;99.90;;;;;;4396842;28;658408;-76
2024/03/02 00:33:51;;;;;;;51.57;21.77;;;6.20;1.00;;;;;;4429460;28;657386;-76
2024/03/02 00:36:39;;;;;;;50.95;23.60;;;6.20;1.00;;;;;;4404233;28;657756;-75
2024/03/02 00:39:28;;;;;;;48.97;23.47;;;6.20;1.00;;;;;;4426286;28;656610;-75
2024/03/02 00:42:15;;;;;;;50.93;22.43;;;6.30;1.00;;;;;;4393400;28;657926;-76
2024/03/02 00:45:04;;;;;;;46.50;20.43;;;6.20;1.00;;;;;;4409870;28;656599;-76
2024/03/02 00:47:51;;;;;;;45.60;21.40;;;6.30;1.00;;;;;;4426357;28;657518;-76
2024/03/02 00:50:38;;;;;;;47.13;21.83;;;6.30;1.00;;;;;;4394309;28;656185;-75
2024/03/02 00:53:26;;;;;;;48.47;21.60;;;6.30;1.00;;;;;;4402953;28;657618;-75
2024/03/02 00:56:15;;;;;;;51.80;23.77;;;6.30;1.00;;;;;;4373406;28;656873;-76
2024/03/02 00:59:02;;;;;;;51.83;23.53;;;6.30;1.00;;;;;;4388594;28;656724;-76
2024/03/02 01:01:50;;;;;;;59.53;26.73;;;6.40;1.00;;;;;;4409305;28;657078;-76
2024/03/02 01:04:37;;;;;;;52.13;26.47;;;6.40;99.90;;;;;;4386238;28;656983;-76
2024/03/02 01:07:25;;;;;;;46.27;22.17;;;6.50;99.90;;;;;;4392757;28;657801;-76
2024/03/02 01:10:13;;;;;;;43.97;20.50;;;6.50;99.90;;;;;;4397016;28;657422;-76
2024/03/02 01:13:01;;;;;;;48.33;19.73;;;6.60;99.90;;;;;;4395079;28;658911;-75
2024/03/02 01:15:49;;;;;;;44.63;19.50;;;6.60;99.90;;;;;;4385632;28;657989;-75
2024/03/02 01:18:36;;;;;;;42.90;19.43;;;6.80;99.90;;;;;;4401808;28;658140;-75
2024/03/02 01:21:23;;;;;;;40.77;19.03;;;6.80;85.60;;;;;;4379669;28;657738;-76
2024/03/02 01:24:10;;;;;;;43.07;19.83;;;6.70;1.00;;;;;;4401849;28;657742;-76
2024/03/02 01:26:58;;;;;;;40.30;19.70;;;6.80;1.00;;;;;;4376835;28;657290;-75
2024/03/02 01:29:46;;;;;;;40.67;20.00;;;6.80;1.00;;;;;;4404454;28;657332;-76
2024/03/02 01:32:33;;;;;;;47.57;19.57;;;6.80;1.00;;;;;;4302390;28;657143;-76
2024/03/02 01:35:21;;;;;;;44.97;18.50;;;6.80;1.00;;;;;;4347591;28;657231;-75
2024/03/02 01:38:08;;;;;;;41.90;19.20;;;6.90;1.00;;;;;;4381245;28;657059;-75
2024/03/02 01:40:56;;;;;;;43.53;18.70;;;6.90;1.00;;;;;;4417241;28;656691;-76
2024/03/02 01:43:43;;;;;;;43.20;20.37;;;6.90;1.00;;;;;;4388358;28;656280;-75
2024/03/02 01:46:32;;;;;;;41.38;18.48;;;6.90;1.00;;;;;;4404054;28;657624;-76
2024/03/02 01:49:19;;;;;;;36.57;17.80;;;6.90;1.00;;;;;;4369570;28;658238;-75
2024/03/02 01:52:07;;;;;;;37.87;18.10;;;7.00;1.00;;;;;;4409098;28;656603;-76
2024/03/02 01:54:54;;;;;;;36.53;17.20;;;7.00;1.00;;;;;;4388328;28;657799;-76
2024/03/02 01:57:41;;;;;;;37.87;17.00;;;7.00;1.00;;;;;;4414311;28;656151;-76
2024/03/02 02:00:30;;;;;;;35.47;16.37;;;7.00;1.00;;;;;;4381179;28;656305;-75
2024/03/02 02:03:18;;;;;;;32.97;16.20;;;7.20;1.00;;;;;;4395474;28;656747;-75
2024/03/02 02:06:05;;;;;;;40.53;16.43;;;7.20;99.90;;;;;;4372119;28;657215;-76
2024/03/02 02:08:53;;;;;;;38.33;15.70;;;7.20;99.90;;;;;;4379755;28;657696;-75
2024/03/02 02:11:40;;;;;;;35.57;17.07;;;7.20;99.90;;;;;;4406449;28;659201;-76
2024/03/02 02:14:28;;;;;;;39.50;17.07;;;7.20;99.90;;;;;;4382293;28;657764;-76
2024/03/02 02:17:15;;;;;;;31.57;16.73;;;7.20;99.90;;;;;;4407523;28;657481;-75
2024/03/02 02:20:05;;;;;;;34.90;17.13;;;7.20;72.70;;;;;;4384805;28;657937;-75
2024/03/02 02:23:00;;;;;;;37.85;17.08;;;7.20;30.00;;;;;;4388862;28;657967;-75
2024/03/02 02:25:47;;;;;;;41.23;17.13;;;7.20;9.50;;;;;;4370664;28;657793;-75
2024/03/02 02:28:35;;;;;;;38.03;17.90;;;7.20;99.90;;;;;;4400263;28;656848;-76
2024/03/02 02:31:22;;;;;;;32.67;15.43;;;7.20;65.30;;;;;;4407629;28;657932;-75
2024/03/02 02:34:10;;;;;;;33.13;14.93;;;7.20;99.90;;;;;;4404325;28;658451;-75
2024/03/02 02:36:57;;;;;;;30.00;14.60;;;7.30;1.00;;;;;;4381494;28;658228;-76
2024/03/02 02:39:46;;;;;;;33.90;15.30;;;7.30;1.00;;;;;;4410684;28;657062;-76
2024/03/02 02:42:33;;;;;;;36.00;15.53;;;7.40;1.00;;;;;;4386272;28;656480;-75
2024/03/02 02:45:20;;;;;;;34.97;15.87;;;7.30;1.00;;;;;;4414231;28;656662;-75
2024/03/02 02:48:08;;;;;;;32.57;15.23;;;7.40;1.00;;;;;;4391858;28;656602;-76
2024/03/02 02:50:56;;;;;;;38.60;15.03;;;7.40;1.00;;;;;;4390680;28;657386;-75
2024/03/02 02:53:43;;;;;;;36.17;15.90;;;7.40;1.00;;;;;;4380062;28;656328;-76
2024/03/02 02:56:32;;;;;;;30.93;14.70;;;7.40;1.00;;;;;;4402932;28;656630;-75
2024/03/02 02:59:19;;;;;;;33.80;15.10;;;7.40;99.90;;;;;;4383149;28;657394;-75
2024/03/02 03:02:06;;;;;;;30.10;14.30;;;7.50;99.90;;;;;;4406046;28;657893;-76
2024/03/02 03:04:53;;;;;;;33.67;13.53;;;7.50;99.90;;;;;;4381710;28;658032;-75
2024/03/02 03:07:40;;;;;;;31.07;15.00;;;7.50;99.90;;;;;;4391282;28;659012;-75
2024/03/02 03:10:28;;;;;;;30.40;13.33;;;7.50;99.90;;;;;;4389333;28;657848;-76
2024/03/02 03:13:16;;;;;;;34.07;14.13;;;7.40;99.90;;;;;;4401922;28;658931;-76
2024/03/02 03:16:05;;;;;;;34.13;13.73;;;7.50;99.90;;;;;;4381763;28;657445;-76
2024/03/02 03:18:53;;;;;;;32.90;14.03;;;7.40;99.90;;;;;;4380758;28;657541;-75
2024/03/02 03:21:40;;;;;;;28.67;14.40;;;7.50;39.10;;;;;;4391010;28;658896;-76
2024/03/02 03:24:27;;;;;;;37.00;15.10;;;7.40;99.90;;;;;;4383184;28;658191;-75
2024/03/02 03:27:15;;;;;;;28.43;14.07;;;7.50;92.40;;;;;;4396052;28;658085;-76
2024/03/02 03:30:04;;;;;;;32.67;15.13;;;7.50;1.00;;;;;;4402028;28;657607;-75
2024/03/02 03:32:53;;;;;;;38.17;16.60;;;7.40;1.00;;;;;;4340655;28;657163;-76
2024/03/02 03:35:40;;;;;;;39.03;16.60;;;7.40;21.10;;;;;;4309526;28;657493;-76
2024/03/02 03:38:27;;;;;;;36.77;16.70;;;7.40;99.90;;;;;;4314507;28;657527;-76
2024/03/02 03:41:15;;;;;;;33.83;16.70;;;7.40;99.90;;;;;;4326204;28;657651;-76
2024/03/02 03:44:03;;;;;;;35.40;15.40;;;7.40;1.00;;;;;;4378211;28;657879;-76
2024/03/02 03:46:52;;;;;;;35.38;16.90;;;7.40;1.00;;;;;;4403881;28;657512;-76
2024/03/02 03:49:39;;;;;;;37.07;16.80;;;7.30;1.00;;;;;;4382078;28;656951;-76
2024/03/02 03:52:26;;;;;;;37.17;17.93;;;7.20;99.90;;;;;;4400658;28;656855;-75
2024/03/02 03:55:15;;;;;;;36.27;15.50;;;7.10;99.90;;;;;;4375901;28;658976;-75
2024/03/02 03:58:02;;;;;;;30.00;13.83;;;7.10;99.90;;;;;;4407442;28;657415;-75
2024/03/02 04:00:49;;;;;;;37.90;15.90;;;7.00;1.00;;;;;;4378141;28;659412;-75
2024/03/02 04:03:38;;;;;;;36.57;16.47;;;6.90;1.00;;;;;;4399677;28;656940;-76
2024/03/02 04:06:26;;;;;;;32.30;15.20;;;7.00;1.00;;;;;;4375956;28;656651;-74
2024/03/02 04:09:13;;;;;;;37.07;16.30;;;7.00;99.90;;;;;;4377220;28;656470;-75
2024/03/02 04:12:00;;;;;;;39.03;17.13;;;6.90;1.00;;;;;;4397838;28;659453;-75
2024/03/02 04:14:48;;;;;;;42.10;20.00;;;6.90;1.00;;;;;;4396121;28;656724;-75
2024/03/02 04:17:35;;;;;;;49.33;20.47;;;6.80;1.00;;;;;;4393993;28;658091;-75
2024/03/02 04:20:25;;;;;;;50.87;20.80;;;6.60;1.00;;;;;;4388314;28;656898;-75
2024/03/02 04:23:13;;;;;;;50.10;19.17;;;6.50;1.00;;;;;;4392363;28;656614;-75
2024/03/02 04:26:00;;;;;;;46.80;22.00;;;6.50;99.90;;;;;;4409612;28;657290;-75
2024/03/02 04:28:47;;;;;;;48.27;19.83;;;6.30;99.90;;;;;;4403558;28;657690;-75
2024/03/02 04:31:35;;;;;;;48.03;21.47;;;6.30;99.90;;;;;;4397563;28;657718;-76
2024/03/02 04:34:23;;;;;;;66.47;26.07;;;6.20;99.90;;;;;;4396064;28;657673;-76
2024/03/02 04:37:14;;;;;;;54.43;24.63;;;6.20;1.00;;;;;;4405991;28;658411;-75
2024/03/02 04:40:01;;;;;;;60.40;26.30;;;6.10;99.90;;;;;;4374641;28;656624;-76
2024/03/02 04:42:48;;;;;;;71.10;27.43;;;5.90;99.90;;;;;;4385369;28;657585;-75
2024/03/02 04:45:35;;;;;;;91.27;35.77;;;5.80;1.00;;;;;;4403939;28;657885;-76
2024/03/02 04:48:23;;;;;;;83.63;31.57;;;5.70;1.00;;;;;;4389100;28;656919;-75
2024/03/02 04:51:11;;;;;;;62.97;26.73;;;5.70;92.90;;;;;;4403564;28;657679;-75
2024/03/02 04:53:59;;;;;;;59.37;26.73;;;5.70;99.90;;;;;;4377633;28;658171;-76
2024/03/02 04:56:50;;;;;;;59.23;26.57;;;5.60;99.90;;;;;;4398738;28;657688;-76
2024/03/02 04:59:37;;;;;;;64.40;26.50;;;5.60;99.90;;;;;;4384495;28;658115;-75
2024/03/02 05:02:25;;;;;;;60.43;25.87;;;5.50;99.90;;;;;;4404238;28;658092;-76
2024/03/02 05:05:14;;;;;;;61.47;25.70;;;5.40;99.90;;;;;;4399395;28;657422;-76
2024/03/02 05:08:03;;;;;;;51.10;24.43;;;5.20;1.00;;;;;;4409160;28;657923;-76
2024/03/02 05:10:51;;;;;;;49.90;22.80;;;5.30;1.00;;;;;;4376656;28;657740;-75
2024/03/02 05:13:38;;;;;;;57.20;24.53;;;5.30;1.00;;;;;;4384709;28;656833;-75
2024/03/02 05:16:25;;;;;;;66.73;28.00;;;5.30;50.00;;;;;;4396388;28;657092;-75
2024/03/02 05:19:13;;;;;;;60.27;26.30;;;5.30;96.70;;;;;;4380999;28;657862;-75
2024/03/02 05:22:00;;;;;;;54.17;25.50;;;5.30;99.90;;;;;;4398764;28;658606;-75
2024/03/02 05:24:47;;;;;;;59.97;25.10;;;5.30;99.90;;;;;;4381164;28;658064;-75
2024/03/02 05:27:36;;;;;;;63.60;28.17;;;5.20;99.90;;;;;;4399842;28;658277;-75
2024/03/02 05:30:25;;;;;;;75.87;31.43;;;5.10;99.90;;;;;;4371594;28;657671;-75
2024/03/02 05:33:12;;;;;;;70.78;27.05;;;5.00;99.90;;;;;;4382556;28;657614;-75
2024/03/02 05:36:01;;;;;;;56.47;26.53;;;4.90;99.90;;;;;;4399506;28;659302;-75
2024/03/02 05:38:49;;;;;;;64.90;27.73;;;4.90;99.90;;;;;;4374517;28;657896;-76
2024/03/02 05:41:36;;;;;;;76.47;31.37;;;4.90;99.90;;;;;;4413078;28;658839;-76
2024/03/02 05:44:24;;;;;;;98.50;36.87;;;4.90;99.90;;;;;;4382826;28;658299;-76
2024/03/02 05:47:12;;;;;;;72.10;28.20;;;5.00;99.90;;;;;;4393682;28;657794;-75
2024/03/02 05:49:59;;;;;;;51.03;23.20;;;5.00;99.90;;;;;;4379286;28;657719;-76
2024/03/02 05:52:46;;;;;;;56.57;23.23;;;5.00;99.90;;;;;;4402748;28;656715;-76
2024/03/02 05:55:34;;;;;;;57.60;23.87;;;5.10;99.90;;;;;;4376763;28;657302;-75
2024/03/02 05:58:32;;;;;;;70.03;28.77;;;5.10;99.90;;;;;;4413010;28;658387;-75
2024/03/02 06:01:22;;;;;;;66.60;27.40;;;5.20;99.90;;;;;;4374855;28;657834;-76
2024/03/02 06:04:10;;;;;;;57.67;27.00;;;5.20;99.90;;;;;;4369120;28;658679;-76
2024/03/02 06:06:58;;;;;;;60.80;25.37;;;5.30;99.90;;;;;;4361532;28;657653;-76
2024/03/02 06:09:47;;;;;;;64.63;26.23;;;5.40;99.90;;;;;;4397046;28;658816;-75
2024/03/02 06:12:34;;;;;;;65.07;28.47;;;5.40;99.90;;;;;;4379807;28;658644;-76
2024/03/02 06:15:21;;;;;;;51.93;24.67;;;5.40;99.90;;;;;;4407174;28;658522;-76
2024/03/02 06:18:10;;;;;;;55.10;24.80;;;5.50;99.90;;;;;;4368061;28;657895;-76
2024/03/02 06:20:57;;;;;;;50.47;23.33;;;5.60;99.90;;;;;;4388444;28;657302;-76
2024/03/02 06:23:45;;;;;;;62.30;27.53;;;5.70;99.90;;;;;;4397498;28;658875;-76
2024/03/02 06:26:32;;;;;;;65.40;29.97;;;5.90;99.90;;;;;;4390613;28;657704;-76
2024/03/02 06:29:20;;;;;;;66.20;28.70;;;6.00;99.90;;;;;;4406815;28;658385;-76
2024/03/02 06:32:07;;;;;;;57.83;26.87;;;6.20;92.60;;;;;;4415992;28;658178;-76
2024/03/02 06:34:55;;;;;;;53.13;25.10;;;6.20;1.00;;;;;;4385886;28;658565;-76
2024/03/02 06:37:43;;;;;;;50.23;23.83;;;6.30;1.00;;;;;;4389947;28;656666;-75
2024/03/02 06:40:30;;;;;;;45.87;22.90;;;6.40;1.00;;;;;;4399799;28;657219;-76
2024/03/02 06:43:17;;;;;;;45.60;22.77;;;6.50;1.00;;;;;;4376413;28;656723;-75
2024/03/02 06:46:06;;;;;;;46.27;23.67;;;6.60;1.00;;;;;;4402101;28;657062;-76
2024/03/02 06:48:53;;;;;;;82.70;34.70;;;6.80;1.00;;;;;;4378684;28;656545;-76
2024/03/02 06:51:42;;;;;;;77.70;34.43;;;6.90;1.00;;;;;;4415922;28;656988;-76
2024/03/02 06:54:29;;;;;;;59.80;27.97;;;7.00;1.00;;;;;;4393396;28;657086;-76
2024/03/02 06:57:17;;;;;;;114.73;38.27;;;7.20;99.90;;;;;;4415503;28;656412;-76
2024/03/02 07:00:05;;;;;;;84.13;36.30;;;7.40;1.00;;;;;;4381184;28;659926;-76
2024/03/02 07:02:52;;;;;;;54.17;28.10;;;7.50;1.00;;;;;;4412868;28;656595;-76
2024/03/02 07:05:40;;;;;;;100.67;37.07;;;7.70;1.00;;;;;;4416443;28;656840;-76
2024/03/02 07:08:29;;;;;;;67.80;29.77;;;7.90;99.90;;;;;;4426119;28;657619;-75
2024/03/02 07:11:16;;;;;;;49.10;25.60;;;8.00;99.90;;;;;;4412698;28;657837;-76
2024/03/02 07:14:03;;;;;;;42.07;21.07;;;8.20;1.00;;;;;;4398133;28;657555;-76
2024/03/02 07:16:50;;;;;;;47.30;23.90;;;8.30;99.90;;;;;;4414921;28;657296;-76
2024/03/02 07:19:39;;;;;;;43.27;20.90;;;8.20;1.00;;;;;;4402873;28;657365;-76
2024/03/02 07:22:26;;;;;;;42.13;22.03;;;8.30;99.90;;;;;;4417458;28;656327;-76
2024/03/02 07:25:15;;;;;;;46.60;21.83;;;8.40;99.90;;;;;;4385294;28;657647;-76
2024/03/02 07:28:02;;;;;;;44.53;22.17;;;8.50;1.00;;;;;;4401733;28;657770;-76
2024/03/02 07:30:59;;;;;;;43.03;20.90;;;8.60;1.00;;;;;;4410609;28;657469;-76
2024/03/02 07:33:47;;;;;;;47.88;21.27;;;8.60;1.00;;;;;;4401425;28;656579;-75
2024/03/02 07:36:34;;;;;;;49.90;23.97;;;8.60;1.00;;;;;;4377987;28;656685;-75
2024/03/02 07:39:21;;;;;;;42.50;20.50;;;8.70;1.00;;;;;;4409227;28;656263;-75
2024/03/02 07:42:10;;;;;;;42.50;20.80;;;8.80;1.00;;;;;;4375703;28;656915;-76
2024/03/02 07:44:57;;;;;;;44.40;21.20;;;8.90;99.90;;;;;;4319704;28;656763;-75
2024/03/02 07:47:45;;;;;;;46.43;22.33;;;9.00;1.00;;;;;;4326463;28;658006;-75
2024/03/02 07:50:34;;;;;;;49.17;23.37;;;9.20;99.90;;;;;;4304931;28;656871;-76
2024/03/02 07:53:22;;;;;;;47.73;23.37;;;9.20;10.80;;;;;;4395908;28;658184;-75
2024/03/02 07:56:09;;;;;;;47.20;21.00;;;9.30;1.00;;;;;;4381657;28;657557;-75
2024/03/02 07:59:00;;;;;;;39.37;18.70;;;9.40;1.00;;;;;;4407177;28;656257;-75
2024/03/02 08:01:48;;;;;;;39.20;18.07;;;9.40;1.00;;;;;;4388479;28;656513;-75
2024/03/02 08:04:35;;;;;;;37.30;18.47;;;9.50;1.00;;;;;;4417781;28;657586;-76
2024/03/02 08:07:23;;;;;;;42.27;17.53;;;9.60;99.90;;;;;;4402070;28;656409;-75
2024/03/02 08:10:10;;;;;;;36.60;17.77;;;9.60;1.00;;;;;;4412005;28;658510;-75
2024/03/02 08:12:58;;;;;;;35.23;17.47;;;9.60;99.90;;;;;;4404237;28;656486;-75
2024/03/02 08:15:46;;;;;;;56.57;22.83;;;9.70;99.90;;;;;;4411463;28;658002;-75
2024/03/02 08:18:34;;;;;;;68.13;36.40;;;9.70;99.90;;;;;;4401088;28;657841;-76
2024/03/02 08:21:21;;;;;;;48.27;23.57;;;9.70;99.90;;;;;;4416243;28;658250;-75
2024/03/02 08:24:08;;;;;;;68.23;40.30;;;9.70;99.90;;;;;;4402484;28;657885;-75
2024/03/02 08:26:56;;;;;;;56.27;32.50;;;9.80;99.90;;;;;;4411470;28;659403;-75
2024/03/02 08:29:43;;;;;;;33.57;16.90;;;9.80;99.90;;;;;;4386973;28;657877;-75
2024/03/02 08:32:32;;;;;;;37.47;16.80;;;9.90;54.20;;;;;;4422280;28;658421;-75
2024/03/02 08:35:19;;;;;;;34.57;16.43;;;9.90;12.70;;;;;;4379780;28;657458;-75
2024/03/02 08:38:06;;;;;;;35.83;15.93;;;9.90;8.40;;;;;;4418914;28;657729;-75
2024/03/02 08:40:53;;;;;;;30.67;15.87;;;10.00;1.00;;;;;;4400493;28;656758;-75
2024/03/02 08:43:41;;;;;;;32.63;16.40;;;10.10;1.00;;;;;;4408884;28;657976;-76
2024/03/02 08:46:29;;;;;;;36.73;16.70;;;10.20;1.00;;;;;;4392971;28;658115;-75
2024/03/02 08:49:17;;;;;;;31.03;15.43;;;10.40;1.00;;;;;;4423920;28;658242;-76
2024/03/02 08:52:05;;;;;;;49.77;24.27;;;10.50;1.00;;;;;;4384097;28;658321;-76
2024/03/02 08:54:53;;;;;;;51.53;25.33;;;10.60;1.00;;;;;;4394706;28;657848;-75
2024/03/02 08:57:41;;;;;;;50.40;24.90;;;10.70;1.00;;;;;;4402661;28;657923;-75
2024/03/02 09:00:28;;;;;;;50.17;24.37;;;10.70;63.70;;;;;;4388152;28;657611;-75
2024/03/02 09:03:16;;;;;;;65.43;30.63;;;10.60;1.00;;;;;;4397270;28;659625;-75
2024/03/02 09:06:05;;;;;;;51.07;24.33;;;10.70;99.90;;;;;;4379058;28;658352;-75
2024/03/02 09:08:52;;;;;;;49.53;25.57;;;10.70;99.90;;;;;;4402702;28;658215;-75
2024/03/02 09:11:40;;;;;;;62.70;28.23;;;10.80;99.90;;;;;;4418936;28;659489;-75
2024/03/02 09:14:27;;;;;;;64.50;27.77;;;10.80;99.90;;;;;;4422474;28;658492;-75
2024/03/02 09:17:15;;;;;;;62.70;29.23;;;10.70;99.90;;;;;;4434986;28;659278;-75
2024/03/02 09:20:04;;;;;;;56.97;27.17;;;10.70;99.90;;;;;;4406712;28;658808;-75
2024/03/02 09:22:52;;;;;;;49.20;24.17;;;10.70;99.90;;;;;;4425600;28;658768;-75
2024/03/02 09:25:39;;;;;;;49.47;23.47;;;10.80;1.00;;;;;;4393263;28;660055;-76
2024/03/02 09:28:27;;;;;;;51.30;25.17;;;10.80;1.00;;;;;;4413483;28;657443;-76
2024/03/02 09:31:14;;;;;;;51.57;23.53;;;10.90;1.00;;;;;;4376562;28;657652;-76
2024/03/02 09:34:01;;;;;;;44.23;23.80;;;10.70;1.00;;;;;;4416333;28;657599;-76
2024/03/02 09:36:48;;;;;;;48.33;22.90;;;10.70;80.40;;;;;;4405278;28;657796;-75
2024/03/02 09:39:37;;;;;;;44.13;22.87;;;10.80;1.00;;;;;;4421648;28;659379;-76
2024/03/02 09:42:25;;;;;;;42.70;21.50;;;10.70;1.00;;;;;;4400615;28;658727;-76
2024/03/02 09:45:12;;;;;;;46.17;20.75;;;10.70;1.00;;;;;;4404298;28;658432;-76
2024/03/02 09:48:00;;;;;;;40.80;18.57;;;10.60;1.00;;;;;;4430625;28;657577;-76
2024/03/02 09:50:47;;;;;;;42.57;19.83;;;10.60;1.00;;;;;;4415621;28;657993;-75
2024/03/02 09:53:35;;;;;;;44.37;20.03;;;10.40;1.00;;;;;;4433463;28;658060;-76
2024/03/02 09:56:24;;;;;;;41.70;20.33;;;10.30;1.00;;;;;;4421662;28;657872;-76
2024/03/02 09:59:11;;;;;;;46.63;23.00;;;10.40;1.00;;;;;;4428488;28;658094;-75
2024/03/02 10:01:59;;;;;;;41.37;18.40;;;10.50;1.00;;;;;;4402544;28;657527;-75
2024/03/02 10:04:46;;;;;;;43.07;22.43;;;10.40;99.90;;;;;;4417254;28;657703;-75
2024/03/02 10:07:34;;;;;;;53.00;23.70;;;10.40;1.00;;;;;;4404488;28;658930;-76
2024/03/02 10:10:22;;;;;;;47.93;23.40;;;10.30;1.00;;;;;;4426407;28;657949;-76
2024/03/02 10:13:11;;;;;;;57.20;25.63;;;10.30;1.00;;;;;;4403129;28;658669;-75
2024/03/02 10:15:59;;;;;;;47.73;23.20;;;10.30;1.00;;;;;;4403045;28;657909;-76
2024/03/02 10:18:46;;;;;;;52.93;24.33;;;10.20;1.00;;;;;;4417128;28;657789;-76
2024/03/02 10:21:33;;;;;;;60.27;27.63;;;10.20;5.30;;;;;;4406589;28;657787;-76
2024/03/02 10:24:21;;;;;;;50.53;25.17;;;10.10;1.00;;;;;;4425937;28;658279;-76
2024/03/02 10:27:10;;;;;;;60.70;25.53;;;10.10;99.90;;;;;;4400497;28;657715;-76
2024/03/02 10:29:59;;;;;;;63.40;30.17;;;10.10;99.90;;;;;;4418681;28;658243;-75
2024/03/02 10:32:46;;;;;;;49.57;25.37;;;10.10;1.00;;;;;;4431490;28;658648;-76
2024/03/02 10:35:36;;;;;;;51.30;25.77;;;10.20;1.00;;;;;;4409156;28;657759;-76
2024/03/02 10:38:23;;;;;;;49.53;26.47;;;10.20;1.00;;;;;;4404011;28;658523;-75
2024/03/02 10:41:10;;;;;;;53.73;27.30;;;10.20;1.00;;;;;;4421828;28;658669;-75
2024/03/02 10:43:59;;;;;;;58.57;27.70;;;10.30;1.00;;;;;;4405018;28;657817;-75
2024/03/02 10:46:47;;;;;;;58.07;30.97;;;10.30;1.00;;;;;;4428358;28;657255;-75
2024/03/02 10:49:35;;;;;;;56.97;29.33;;;10.40;1.00;;;;;;4399740;28;657717;-75
2024/03/02 10:52:23;;;;;;;57.17;28.83;;;10.50;20.00;;;;;;4421403;28;657942;-75
2024/03/02 10:55:12;;;;;;;61.33;27.87;;;10.50;1.00;;;;;;4420363;28;659070;-75
2024/03/02 10:57:59;;;;;;;55.13;27.20;;;10.60;1.00;;;;;;4395681;28;657746;-75
2024/03/02 11:00:46;;;;;;;58.93;27.67;;;10.70;1.00;;;;;;4428783;28;657327;-75
2024/03/02 11:03:37;;;;;;;58.13;27.70;;;10.80;1.00;;;;;;4403517;28;657431;-75
2024/03/02 11:06:24;;;;;;;52.97;25.60;;;10.80;1.00;;;;;;4403650;28;657657;-76
2024/03/02 11:09:13;;;;;;;57.13;24.07;;;10.80;1.00;;;;;;4422942;28;657629;-75
2024/03/02 11:12:03;;;;;;;46.43;20.90;;;10.90;1.00;;;;;;4404472;28;658412;-75
2024/03/02 11:14:51;;;;;;;48.43;22.50;;;10.80;99.90;;;;;;4399157;28;658284;-74
2024/03/02 11:17:39;;;;;;;41.75;21.70;;;10.60;1.00;;;;;;4399635;28;659353;-75
2024/03/02 11:20:28;;;;;;;49.57;23.53;;;10.50;1.00;;;;;;4428423;28;657950;-75
2024/03/02 11:23:15;;;;;;;44.90;23.13;;;10.50;31.30;;;;;;4402446;28;658012;-75
2024/03/02 11:26:18;;;;;;;44.00;21.87;;;10.50;61.00;;;;;;4403936;28;658999;-75
2024/03/02 11:29:07;;;;;;;44.17;23.27;;;10.60;99.90;;;;;;4396198;28;658916;-75
2024/03/02 11:32:00;;;;;;;42.37;21.67;;;10.70;28.30;;;;;;4396886;28;658913;-75
2024/03/02 11:34:49;;;;;;;43.07;21.67;;;10.80;1.00;;;;;;4392278;28;658792;-75
2024/03/02 11:37:38;;;;;;;43.77;21.47;;;10.90;41.90;;;;;;4431635;28;657865;-74
2024/03/02 11:40:26;;;;;;;43.40;21.80;;;10.90;1.00;;;;;;4408474;28;659707;-75
2024/03/02 11:43:13;;;;;;;39.00;21.03;;;10.70;99.90;;;;;;4407234;28;658118;-75
2024/03/02 11:46:00;;;;;;;39.27;21.37;;;10.90;99.90;;;;;;4417962;28;659732;-75
2024/03/02 11:48:47;;;;;;;43.03;22.70;;;11.10;52.60;;;;;;4404994;28;658716;-75
2024/03/02 11:51:35;;;;;;;39.10;19.23;;;10.90;1.00;;;;;;4425324;28;658044;-75
2024/03/02 11:54:24;;;;;;;41.63;19.27;;;11.10;1.00;;;;;;4421070;28;658141;-74
2024/03/02 11:57:11;;;;;;;37.80;18.93;;;11.10;1.00;;;;;;4426886;28;657310;-75
2024/03/02 11:59:59;;;;;;;36.67;18.30;;;10.80;99.90;;;;;;4406973;28;657810;-75
2024/03/02 12:02:49;;;;;;;35.50;17.63;;;10.80;99.90;;;;;;4412538;28;658935;-74
2024/03/02 12:05:36;;;;;;;36.47;17.90;;;10.90;1.00;;;;;;4403979;28;658671;-75
2024/03/02 12:08:23;;;;;;;37.23;18.97;;;10.90;30.20;;;;;;4408824;28;658361;-74
2024/03/02 12:11:14;;;;;;;40.87;19.23;;;11.30;1.00;;;;;;4410947;28;659858;-74
2024/03/02 12:14:01;;;;;;;36.80;19.50;;;11.40;99.90;;;;;;4393097;28;657608;-74
2024/03/02 12:16:48;;;;;;;35.40;18.30;;;11.30;99.90;;;;;;4407688;28;658658;-75
2024/03/02 12:19:35;;;;;;;35.30;18.43;;;11.20;1.00;;;;;;4414239;28;659867;-75
2024/03/02 12:22:23;;;;;;;37.63;18.77;;;11.10;99.90;;;;;;4398111;28;657847;-74
2024/03/02 12:25:10;;;;;;;31.10;17.20;;;11.20;88.40;;;;;;4414034;28;660004;-75
2024/03/02 12:28:00;;;;;;;35.47;18.53;;;11.20;99.90;;;;;;4402029;28;659458;-75
2024/03/02 12:30:48;;;;;;;36.10;16.70;;;11.10;1.00;;;;;;4398755;28;658751;-74
2024/03/02 12:33:36;;;;;;;32.97;17.98;;;11.10;99.90;;;;;;4421988;28;658554;-74
2024/03/02 12:36:23;;;;;;;28.97;16.20;;;10.80;99.90;;;;;;4405682;28;658770;-75
2024/03/02 12:39:10;;;;;;;47.43;23.00;;;10.90;99.90;;;;;;4418560;28;659568;-75
2024/03/02 12:41:58;;;;;;;45.83;24.20;;;10.90;1.00;;;;;;4400418;28;658946;-75
2024/03/02 12:44:47;;;;;;;69.20;34.73;;;11.00;1.00;;;;;;4424893;28;658499;-73
2024/03/02 12:47:34;;;;;;;74.47;38.33;;;11.00;1.00;;;;;;4405160;28;657717;-75
2024/03/02 12:50:21;;;;;;;68.40;32.10;;;11.00;1.00;;;;;;4428284;28;657884;-74
2024/03/02 12:53:14;;;;;;;69.23;32.77;;;10.90;1.00;;;;;;4400437;28;658157;-75
2024/03/02 12:56:02;;;;;;;64.77;30.20;;;10.80;1.00;;;;;;4402509;28;658699;-75
2024/03/02 12:58:49;;;;;;;56.80;28.93;;;10.70;99.90;;;;;;4404523;28;658423;-75
2024/03/02 13:01:38;;;;;;;56.10;28.20;;;10.50;1.00;;;;;;4429269;28;659134;-75
2024/03/02 13:04:25;;;;;;;57.20;29.03;;;10.40;1.00;;;;;;4401553;28;658714;-75
2024/03/02 13:07:13;;;;;;;58.60;30.43;;;10.40;95.60;;;;;;4412794;28;657681;-75
2024/03/02 13:10:01;;;;;;;61.37;30.43;;;10.30;99.90;;;;;;4426230;28;659204;-74
2024/03/02 13:12:48;;;;;;;56.33;30.53;;;10.20;99.90;;;;;;4406147;28;658767;-75
2024/03/02 13:15:35;;;;;;;57.20;28.77;;;10.10;99.90;;;;;;4417282;28;659742;-75
2024/03/02 13:18:24;;;;;;;60.73;28.47;;;10.10;1.00;;;;;;4405005;28;658291;-75
2024/03/02 13:21:11;;;;;;;69.30;35.60;;;10.20;99.90;;;;;;4425050;28;657826;-75
2024/03/02 13:24:00;;;;;;;66.23;34.30;;;10.30;99.90;;;;;;4404290;28;658546;-75
2024/03/02 13:26:47;;;;;;;68.30;32.97;;;10.30;1.00;;;;;;4427109;28;658976;-75
2024/03/02 13:29:35;;;;;;;62.87;29.63;;;10.30;99.90;;;;;;4428637;28;658029;-75
2024/03/02 13:32:24;;;;;;;53.60;27.47;;;10.30;99.90;;;;;;4415243;28;658278;-75
2024/03/02 13:35:12;;;;;;;78.10;32.53;;;10.30;1.00;;;;;;4420542;28;658509;-75
2024/03/02 13:37:59;;;;;;;53.57;26.53;;;10.30;1.00;;;;;;4404646;28;658826;-75
2024/03/02 13:40:47;;;;;;;54.63;26.77;;;10.40;99.90;;;;;;4428000;28;657377;-75
2024/03/02 13:43:35;;;;;;;76.63;34.23;;;10.40;99.90;;;;;;4405569;28;658839;-74
2024/03/02 13:46:23;;;;;;;102.70;38.37;;;10.60;99.90;;;;;;4343161;28;658998;-76
2024/03/02 13:49:10;;;;;;;92.83;37.73;;;10.80;99.90;;;;;;4343418;28;659507;-76
2024/03/02 13:52:00;;;;;;;139.67;48.03;;;11.00;93.70;;;;;;4322611;28;659139;-75
2024/03/02 13:54:48;;;;;;;63.13;32.43;;;11.10;1.00;;;;;;4341397;28;659813;-75
2024/03/02 13:57:36;;;;;;;66.67;32.87;;;11.20;99.90;;;;;;4410566;28;657392;-75
2024/03/02 14:00:23;;;;;;;63.50;31.10;;;11.40;99.90;;;;;;4408802;28;658867;-75
2024/03/02 14:03:10;;;;;;;61.67;30.73;;;11.40;99.90;;;;;;4414698;28;659279;-75
2024/03/02 14:05:57;;;;;;;59.93;29.80;;;11.50;99.90;;;;;;4411515;28;659024;-75
2024/03/02 14:08:48;;;;;;;58.30;30.57;;;11.60;99.90;;;;;;4415907;28;659401;-75
2024/03/02 14:11:35;;;;;;;89.50;37.53;;;11.60;1.00;;;;;;4405893;28;659374;-75